sensor_id;sensor_type;location;lat;lon;timestamp;pressure;altitude;pressure_sealevel;temperature;humidity
39793;BME280;26080;42.264;24.536;2023-02-23T00:00:08;99293.66;;;5.61;100.00
39793;BME280;26080;42.264;24.536;2023-02-23T00:02:47;99289.50;;;5.55;100.00
39793;BME280;26080;42.264;24.536;2023-02-23T00:05:15;99287.75;;;5.23;100.00
39793;BME280;26080;42.264;24.536;2023-02-23T00:07:43;99286.09;;;5.21;100.00
39793;BME280;26080;42.264;24.536;2023-02-23T00:10:12;99289.47;;;5.24;100.00
39793;BME280;26080;42.264;24.536;2023-02-23T00:12:39;99254.59;;;5.00;100.00
39793;BME280;26080;42.264;24.536;2023-02-23T00:15:04;99293.00;;;5.20;100.00
39793;BME280;26080;42.264;24.536;2023-02-23T00:17:32;99293.06;;;5.19;100.00
39793;BME280;26080;42.264;24.536;2023-02-23T00:19:57;99291.47;;;5.13;100.00
39793;BME280;26080;42.264;24.536;2023-02-23T00:22:24;99292.56;;;5.04;100.00
39793;BME280;26080;42.264;24.536;2023-02-23T00:24:51;99253.41;;;4.78;100.00
39793;BME280;26080;42.264;24.536;2023-02-23T00:27:16;99292.00;;;4.92;100.00
39793;BME280;26080;42.264;24.536;2023-02-23T00:29:42;99299.13;;;4.84;100.00
39793;BME280;26080;42.264;24.536;2023-02-23T00:32:08;99299.06;;;4.87;100.00
39793;BME280;26080;42.264;24.536;2023-02-23T00:34:33;99297.56;;;4.76;100.00
39793;BME280;26080;42.264;24.536;2023-02-23T00:37:00;99300.34;;;4.69;100.00
39793;BME280;26080;42.264;24.536;2023-02-23T00:39:26;99265.53;;;4.42;100.00
39793;BME280;26080;42.264;24.536;2023-02-23T00:41:54;99300.84;;;4.47;100.00
39793;BME280;26080;42.264;24.536;2023-02-23T00:44:21;99305.09;;;4.50;100.00
39793;BME280;26080;42.264;24.536;2023-02-23T00:46:47;99300.75;;;4.51;100.00
39793;BME280;26080;42.264;24.536;2023-02-23T00:49:15;99300.22;;;4.36;100.00
39793;BME280;26080;42.264;24.536;2023-02-23T00:51:41;99292.72;;;4.24;100.00
39793;BME280;26080;42.264;24.536;2023-02-23T00:54:09;99298.69;;;4.28;100.00
39793;BME280;26080;42.264;24.536;2023-02-23T00:56:34;99293.72;;;4.19;100.00
39793;BME280;26080;42.264;24.536;2023-02-23T00:59:00;99254.47;;;3.95;100.00
39793;BME280;26080;42.264;24.536;2023-02-23T01:01:25;99292.94;;;4.15;100.00
39793;BME280;26080;42.264;24.536;2023-02-23T01:03:50;99300.06;;;4.04;100.00
39793;BME280;26080;42.264;24.536;2023-02-23T01:06:19;99302.84;;;3.95;100.00
39793;BME280;26080;42.264;24.536;2023-02-23T01:08:46;99302.09;;;3.90;100.00
39793;BME280;26080;42.264;24.536;2023-02-23T01:11:23;99298.84;;;3.78;100.00
39793;BME280;26080;42.264;24.536;2023-02-23T01:13:53;99299.09;;;3.66;100.00
39793;BME280;26080;42.264;24.536;2023-02-23T01:16:22;99303.63;;;3.56;100.00
39793;BME280;26080;42.264;24.536;2023-02-23T01:18:52;99314.91;;;3.52;100.00
39793;BME280;26080;42.264;24.536;2023-02-23T01:21:22;99302.13;;;3.43;100.00
39793;BME280;26080;42.264;24.536;2023-02-23T01:23:49;99306.41;;;3.46;100.00
39793;BME280;26080;42.264;24.536;2023-02-23T01:26:16;99291.91;;;3.36;100.00
39793;BME280;26080;42.264;24.536;2023-02-23T01:28:46;99278.31;;;3.24;100.00
39793;BME280;26080;42.264;24.536;2023-02-23T01:31:12;99295.47;;;3.30;100.00
39793;BME280;26080;42.264;24.536;2023-02-23T01:33:38;99302.44;;;3.25;100.00
39793;BME280;26080;42.264;24.536;2023-02-23T01:36:04;99294.88;;;3.16;100.00
39793;BME280;26080;42.264;24.536;2023-02-23T01:38:29;99301.13;;;3.03;100.00
39793;BME280;26080;42.264;24.536;2023-02-23T01:40:55;99298.41;;;3.10;100.00
39793;BME280;26080;42.264;24.536;2023-02-23T01:43:21;99305.22;;;3.14;100.00
39793;BME280;26080;42.264;24.536;2023-02-23T01:45:51;99305.41;;;3.05;100.00
39793;BME280;26080;42.264;24.536;2023-02-23T01:48:24;99306.53;;;2.89;100.00
39793;BME280;26080;42.264;24.536;2023-02-23T01:51:04;99299.59;;;2.91;100.00
39793;BME280;26080;42.264;24.536;2023-02-23T01:53:34;99308.28;;;2.88;100.00
39793;BME280;26080;42.264;24.536;2023-02-23T01:56:06;99308.38;;;2.81;100.00
39793;BME280;26080;42.264;24.536;2023-02-23T01:58:42;99304.16;;;2.75;100.00
39793;BME280;26080;42.264;24.536;2023-02-23T02:01:09;99306.94;;;2.63;100.00
39793;BME280;26080;42.264;24.536;2023-02-23T02:03:38;99312.16;;;2.58;100.00
39793;BME280;26080;42.264;24.536;2023-02-23T02:06:07;99303.53;;;2.61;100.00
39793;BME280;26080;42.264;24.536;2023-02-23T02:08:35;99309.75;;;2.46;100.00
39793;BME280;26080;42.264;24.536;2023-02-23T02:11:09;99313.19;;;2.48;100.00
39793;BME280;26080;42.264;24.536;2023-02-23T02:13:52;99306.31;;;2.47;100.00
39793;BME280;26080;42.264;24.536;2023-02-23T02:16:22;99318.38;;;2.45;100.00
39793;BME280;26080;42.264;24.536;2023-02-23T02:22:17;99313.19;;;2.48;100.00
39793;BME280;26080;42.264;24.536;2023-02-23T02:25:21;99312.34;;;2.45;100.00
39793;BME280;26080;42.264;24.536;2023-02-23T02:42:08;99307.66;;;2.71;100.00
39793;BME280;26080;42.264;24.536;2023-02-23T02:44:42;99315.53;;;2.63;100.00
39793;BME280;26080;42.264;24.536;2023-02-23T02:47:24;99310.28;;;2.70;100.00
39793;BME280;26080;42.264;24.536;2023-02-23T02:52:59;99283.81;;;2.52;100.00
39793;BME280;26080;42.264;24.536;2023-02-23T02:55:27;99262.56;;;2.32;100.00
39793;BME280;26080;42.264;24.536;2023-02-23T02:57:59;99313.84;;;2.62;100.00
39793;BME280;26080;42.264;24.536;2023-02-23T03:00:38;99301.84;;;2.57;100.00
39793;BME280;26080;42.264;24.536;2023-02-23T03:03:37;99310.34;;;2.65;100.00
39793;BME280;26080;42.264;24.536;2023-02-23T03:16:25;99317.59;;;2.42;100.00
39793;BME280;26080;42.264;24.536;2023-02-23T03:19:19;99317.72;;;2.34;100.00
39793;BME280;26080;42.264;24.536;2023-02-23T03:25:22;99315.78;;;2.45;100.00
39793;BME280;26080;42.264;24.536;2023-02-23T03:28:19;99316.50;;;2.56;100.00
39793;BME280;26080;42.264;24.536;2023-02-23T03:36:46;99323.53;;;2.47;100.00
39793;BME280;26080;42.264;24.536;2023-02-23T03:39:36;99323.66;;;2.39;100.00
39793;BME280;26080;42.264;24.536;2023-02-23T03:42:26;99334.16;;;2.27;100.00
39793;BME280;26080;42.264;24.536;2023-02-23T03:45:14;99334.25;;;2.21;100.00
39793;BME280;26080;42.264;24.536;2023-02-23T03:48:02;99342.06;;;2.15;100.00
39793;BME280;26080;42.264;24.536;2023-02-23T03:50:53;99341.94;;;2.24;100.00
39793;BME280;26080;42.264;24.536;2023-02-23T03:53:43;99342.88;;;2.20;100.00
39793;BME280;26080;42.264;24.536;2023-02-23T03:56:32;99344.66;;;2.15;100.00
39793;BME280;26080;42.264;24.536;2023-02-23T03:59:21;99346.25;;;2.25;100.00
39793;BME280;26080;42.264;24.536;2023-02-23T04:02:07;99342.88;;;2.17;100.00
39793;BME280;26080;42.264;24.536;2023-02-23T04:04:54;99300.25;;;1.85;100.00
39793;BME280;26080;42.264;24.536;2023-02-23T04:07:40;99345.66;;;2.01;100.00
39793;BME280;26080;42.264;24.536;2023-02-23T04:10:27;99339.63;;;2.02;100.00
39793;BME280;26080;42.264;24.536;2023-02-23T04:13:17;99310.78;;;1.68;100.00
39793;BME280;26080;42.264;24.536;2023-02-23T04:15:56;99340.72;;;1.85;100.00
39793;BME280;26080;42.264;24.536;2023-02-23T04:18:29;99347.56;;;1.87;100.00
39793;BME280;26080;42.264;24.536;2023-02-23T04:20:56;99305.66;;;1.64;100.00
39793;BME280;26080;42.264;24.536;2023-02-23T04:23:22;99340.78;;;1.80;100.00
39793;BME280;26080;42.264;24.536;2023-02-23T04:25:49;99344.25;;;1.74;100.00
39793;BME280;26080;42.264;24.536;2023-02-23T04:28:15;99333.03;;;1.77;100.00
39793;BME280;26080;42.264;24.536;2023-02-23T04:30:41;99312.50;;;1.68;100.00
39793;BME280;26080;42.264;24.536;2023-02-23T04:33:07;99327.16;;;1.66;100.00
39793;BME280;26080;42.264;24.536;2023-02-23T04:35:36;99341.78;;;1.67;100.00
39793;BME280;26080;42.264;24.536;2023-02-23T04:38:01;99352.19;;;1.58;100.00
39793;BME280;26080;42.264;24.536;2023-02-23T04:40:28;99347.16;;;1.45;100.00
39793;BME280;26080;42.264;24.536;2023-02-23T04:42:54;99353.25;;;1.37;100.00
39793;BME280;26080;42.264;24.536;2023-02-23T04:45:20;99349.97;;;1.19;100.00
39793;BME280;26080;42.264;24.536;2023-02-23T04:47:50;99351.78;;;1.11;100.00
39793;BME280;26080;42.264;24.536;2023-02-23T04:50:19;99352.63;;;1.09;100.00
39793;BME280;26080;42.264;24.536;2023-02-23T04:52:45;99360.31;;;1.16;100.00
39793;BME280;26080;42.264;24.536;2023-02-23T04:55:19;99337.28;;;0.98;100.00
39793;BME280;26080;42.264;24.536;2023-02-23T04:57:46;99351.78;;;1.11;100.00
39793;BME280;26080;42.264;24.536;2023-02-23T05:00:12;99361.25;;;1.08;100.00
39793;BME280;26080;42.264;24.536;2023-02-23T05:02:37;99364.69;;;1.07;100.00
39793;BME280;26080;42.264;24.536;2023-02-23T05:05:03;99361.34;;;0.96;100.00
39793;BME280;26080;42.264;24.536;2023-02-23T05:07:29;99364.81;;;0.92;100.00
39793;BME280;26080;42.264;24.536;2023-02-23T05:09:54;99366.50;;;0.96;100.00
39793;BME280;26080;42.264;24.536;2023-02-23T05:12:20;99372.47;;;1.02;100.00
39793;BME280;26080;42.264;24.536;2023-02-23T05:14:45;99376.78;;;1.02;100.00
39793;BME280;26080;42.264;24.536;2023-02-23T05:17:11;99386.22;;;1.04;100.00
39793;BME280;26080;42.264;24.536;2023-02-23T05:19:36;99358.81;;;0.88;100.00
39793;BME280;26080;42.264;24.536;2023-02-23T05:22:02;99384.50;;;1.02;100.00
39793;BME280;26080;42.264;24.536;2023-02-23T05:24:28;99390.53;;;1.01;100.00
39793;BME280;26080;42.264;24.536;2023-02-23T05:26:53;99360.56;;;0.81;100.00
39793;BME280;26080;42.264;24.536;2023-02-23T05:29:18;99389.59;;;1.14;100.00
39793;BME280;26080;42.264;24.536;2023-02-23T05:31:44;99391.22;;;1.23;100.00
39793;BME280;26080;42.264;24.536;2023-02-23T05:34:10;99394.69;;;1.20;100.00
39793;BME280;26080;42.264;24.536;2023-02-23T05:36:35;99394.72;;;1.17;100.00
39793;BME280;26080;42.264;24.536;2023-02-23T05:39:02;99402.41;;;1.20;100.00
39793;BME280;26080;42.264;24.536;2023-02-23T05:41:28;99410.97;;;1.28;100.00
39793;BME280;26080;42.264;24.536;2023-02-23T05:43:53;99410.13;;;1.25;100.00
39793;BME280;26080;42.264;24.536;2023-02-23T05:46:25;99363.06;;;0.97;100.00
39793;BME280;26080;42.264;24.536;2023-02-23T05:48:56;99407.50;;;1.31;100.00
39793;BME280;26080;42.264;24.536;2023-02-23T05:51:23;99371.56;;;1.08;100.00
39793;BME280;26080;42.264;24.536;2023-02-23T05:53:48;99425.47;;;1.41;100.00
39793;BME280;26080;42.264;24.536;2023-02-23T05:56:16;99419.41;;;1.45;100.00
39793;BME280;26080;42.264;24.536;2023-02-23T05:58:53;99400.56;;;1.37;100.00
39793;BME280;26080;42.264;24.536;2023-02-23T06:01:20;99428.72;;;1.65;100.00
39793;BME280;26080;42.264;24.536;2023-02-23T06:03:46;99406.31;;;1.64;100.00
39793;BME280;26080;42.264;24.536;2023-02-23T06:06:12;99434.50;;;1.88;100.00
39793;BME280;26080;42.264;24.536;2023-02-23T06:08:38;99438.72;;;1.97;100.00
39793;BME280;26080;42.264;24.536;2023-02-23T06:11:03;99394.88;;;1.89;100.00
39793;BME280;26080;42.264;24.536;2023-02-23T06:13:29;99446.94;;;2.31;100.00
39793;BME280;26080;42.264;24.536;2023-02-23T06:15:56;99439.91;;;2.44;100.00
39793;BME280;26080;42.264;24.536;2023-02-23T06:18:24;99437.28;;;2.48;100.00
39793;BME280;26080;42.264;24.536;2023-02-23T06:20:49;99452.47;;;2.71;100.00
39793;BME280;26080;42.264;24.536;2023-02-23T06:23:15;99427.41;;;2.78;100.00
39793;BME280;26080;42.264;24.536;2023-02-23T06:25:41;99455.53;;;3.02;100.00
39793;BME280;26080;42.264;24.536;2023-02-23T06:28:07;99466.53;;;3.13;100.00
39793;BME280;26080;42.264;24.536;2023-02-23T06:30:34;99466.06;;;3.47;100.00
39793;BME280;26080;42.264;24.536;2023-02-23T06:32:59;99461.03;;;3.89;100.00
39793;BME280;26080;42.264;24.536;2023-02-23T06:35:25;99458.13;;;4.05;100.00
39793;BME280;26080;42.264;24.536;2023-02-23T06:37:51;99455.94;;;4.30;100.00
39793;BME280;26080;42.264;24.536;2023-02-23T06:40:17;99459.75;;;4.56;100.00
39793;BME280;26080;42.264;24.536;2023-02-23T06:42:42;99454.28;;;4.69;100.00
39793;BME280;26080;42.264;24.536;2023-02-23T06:45:08;99466.06;;;4.84;100.00
39793;BME280;26080;42.264;24.536;2023-02-23T06:47:34;99454.38;;;5.03;100.00
39793;BME280;26080;42.264;24.536;2023-02-23T06:49:59;99454.06;;;5.17;100.00
39793;BME280;26080;42.264;24.536;2023-02-23T06:52:26;99457.16;;;5.33;100.00
39793;BME280;26080;42.264;24.536;2023-02-23T06:54:51;99463.78;;;5.46;100.00
39793;BME280;26080;42.264;24.536;2023-02-23T06:57:17;99451.19;;;5.65;100.00
39793;BME280;26080;42.264;24.536;2023-02-23T06:59:42;99457.84;;;5.77;100.00
39793;BME280;26080;42.264;24.536;2023-02-23T07:02:10;99455.38;;;5.71;100.00
39793;BME280;26080;42.264;24.536;2023-02-23T07:04:36;99454.41;;;5.75;100.00
39793;BME280;26080;42.264;24.536;2023-02-23T07:07:02;99442.13;;;5.81;100.00
39793;BME280;26080;42.264;24.536;2023-02-23T07:09:28;99467.56;;;6.03;100.00
39793;BME280;26080;42.264;24.536;2023-02-23T07:11:53;99450.88;;;6.11;100.00
39793;BME280;26080;42.264;24.536;2023-02-23T07:14:18;99457.34;;;6.29;100.00
39793;BME280;26080;42.264;24.536;2023-02-23T07:16:44;99451.03;;;6.38;100.00
39793;BME280;26080;42.264;24.536;2023-02-23T07:19:10;99457.91;;;6.40;100.00
39793;BME280;26080;42.264;24.536;2023-02-23T07:21:35;99418.03;;;6.40;100.00
39793;BME280;26080;42.264;24.536;2023-02-23T07:24:01;99451.75;;;6.74;100.00
39793;BME280;26080;42.264;24.536;2023-02-23T07:26:31;99457.34;;;6.90;100.00
39793;BME280;26080;42.264;24.536;2023-02-23T07:28:58;99467.66;;;6.93;100.00
39793;BME280;26080;42.264;24.536;2023-02-23T07:31:24;99453.00;;;6.90;100.00
39793;BME280;26080;42.264;24.536;2023-02-23T07:33:51;99451.00;;;6.98;100.00
39793;BME280;26080;42.264;24.536;2023-02-23T07:36:19;99449.97;;;7.04;100.00
39793;BME280;26080;42.264;24.536;2023-02-23T07:38:45;99450.41;;;7.18;100.00
39793;BME280;26080;42.264;24.536;2023-02-23T07:41:11;99458.09;;;7.21;100.00
39793;BME280;26080;42.264;24.536;2023-02-23T07:43:36;99458.81;;;7.26;100.00
39793;BME280;26080;42.264;24.536;2023-02-23T07:46:02;99456.78;;;7.36;100.00
39793;BME280;26080;42.264;24.536;2023-02-23T07:48:28;99454.84;;;7.42;100.00
39793;BME280;26080;42.264;24.536;2023-02-23T07:50:53;99453.53;;;7.56;100.00
39793;BME280;26080;42.264;24.536;2023-02-23T07:53:19;99455.31;;;7.54;100.00
39793;BME280;26080;42.264;24.536;2023-02-23T07:55:44;99452.44;;;7.63;100.00
39793;BME280;26080;42.264;24.536;2023-02-23T07:58:10;99453.03;;;7.71;100.00
39793;BME280;26080;42.264;24.536;2023-02-23T08:00:37;99451.91;;;7.78;100.00
39793;BME280;26080;42.264;24.536;2023-02-23T08:03:04;99451.78;;;7.83;100.00
39793;BME280;26080;42.264;24.536;2023-02-23T08:05:30;99449.91;;;7.86;100.00
39793;BME280;26080;42.264;24.536;2023-02-23T08:07:56;99444.59;;;7.89;100.00
39793;BME280;26080;42.264;24.536;2023-02-23T08:10:22;99437.31;;;7.99;100.00
39793;BME280;26080;42.264;24.536;2023-02-23T08:12:47;99446.56;;;8.08;100.00
39793;BME280;26080;42.264;24.536;2023-02-23T08:15:13;99453.03;;;8.21;100.00
39793;BME280;26080;42.264;24.536;2023-02-23T08:17:40;99449.44;;;8.25;100.00
39793;BME280;26080;42.264;24.536;2023-02-23T08:20:06;99451.81;;;8.31;100.00
39793;BME280;26080;42.264;24.536;2023-02-23T08:22:32;99450.75;;;8.38;100.00
39793;BME280;26080;42.264;24.536;2023-02-23T08:24:57;99452.84;;;8.52;100.00
39793;BME280;26080;42.264;24.536;2023-02-23T08:27:24;99451.25;;;8.71;100.00
39793;BME280;26080;42.264;24.536;2023-02-23T08:29:50;99450.41;;;8.71;100.00
39793;BME280;26080;42.264;24.536;2023-02-23T08:32:18;99451.38;;;8.68;100.00
39793;BME280;26080;42.264;24.536;2023-02-23T08:34:44;99435.41;;;8.76;100.00
39793;BME280;26080;42.264;24.536;2023-02-23T08:37:09;99450.53;;;8.91;100.00
39793;BME280;26080;42.264;24.536;2023-02-23T08:39:36;99446.81;;;8.97;100.00
39793;BME280;26080;42.264;24.536;2023-02-23T08:42:03;99456.28;;;8.99;100.00
39793;BME280;26080;42.264;24.536;2023-02-23T08:44:28;99445.06;;;8.97;100.00
39793;BME280;26080;42.264;24.536;2023-02-23T08:46:54;99447.19;;;9.09;100.00
39793;BME280;26080;42.264;24.536;2023-02-23T08:49:20;99455.75;;;9.13;100.00
39793;BME280;26080;42.264;24.536;2023-02-23T08:51:46;99447.69;;;9.19;100.00
39793;BME280;26080;42.264;24.536;2023-02-23T08:54:12;99433.78;;;9.18;100.00
39793;BME280;26080;42.264;24.536;2023-02-23T08:56:40;99459.31;;;9.34;100.00
39793;BME280;26080;42.264;24.536;2023-02-23T08:59:05;99445.19;;;9.38;100.00
39793;BME280;26080;42.264;24.536;2023-02-23T09:01:31;99449.66;;;9.56;100.00
39793;BME280;26080;42.264;24.536;2023-02-23T09:03:56;99457.78;;;9.70;100.00
39793;BME280;26080;42.264;24.536;2023-02-23T09:06:24;99437.28;;;9.61;100.00
39793;BME280;26080;42.264;24.536;2023-02-23T09:08:50;99456.66;;;9.77;100.00
39793;BME280;26080;42.264;24.536;2023-02-23T09:11:16;99451.22;;;9.82;100.00
39793;BME280;26080;42.264;24.536;2023-02-23T09:13:41;99451.75;;;9.90;100.00
39793;BME280;26080;42.264;24.536;2023-02-23T09:16:07;99457.75;;;9.92;100.00
39793;BME280;26080;42.264;24.536;2023-02-23T09:18:33;99445.66;;;10.10;100.00
39793;BME280;26080;42.264;24.536;2023-02-23T09:21:02;99453.06;;;10.21;98.94
39793;BME280;26080;42.264;24.536;2023-02-23T09:23:31;99449.84;;;10.14;98.45
39793;BME280;26080;42.264;24.536;2023-02-23T09:26:01;99406.44;;;9.90;99.94
39793;BME280;26080;42.264;24.536;2023-02-23T09:28:27;99431.00;;;10.06;99.81
39793;BME280;26080;42.264;24.536;2023-02-23T09:30:55;99447.63;;;10.25;98.28
39793;BME280;26080;42.264;24.536;2023-02-23T09:33:20;99444.19;;;10.25;99.82
39793;BME280;26080;42.264;24.536;2023-02-23T09:35:46;99444.78;;;10.31;98.62
39793;BME280;26080;42.264;24.536;2023-02-23T09:38:11;99446.63;;;10.29;98.36
39793;BME280;26080;42.264;24.536;2023-02-23T09:40:49;99448.56;;;10.45;96.52
39793;BME280;26080;42.264;24.536;2023-02-23T09:46:14;99447.63;;;10.46;98.71
39793;BME280;26080;42.264;24.536;2023-02-23T09:48:47;99441.00;;;10.57;96.39
39793;BME280;26080;42.264;24.536;2023-02-23T09:51:17;99441.41;;;10.67;98.28
39793;BME280;26080;42.264;24.536;2023-02-23T09:53:48;99440.84;;;10.79;95.09
39793;BME280;26080;42.264;24.536;2023-02-23T09:56:47;99436.19;;;10.86;94.08
39793;BME280;26080;42.264;24.536;2023-02-23T09:59:16;99439.66;;;10.86;94.54
39793;BME280;26080;42.264;24.536;2023-02-23T10:15:23;99424.28;;;11.16;93.00
39793;BME280;26080;42.264;24.536;2023-02-23T10:20:33;99421.78;;;11.49;nan
39793;BME280;26080;42.264;24.536;2023-02-23T10:23:09;99420.16;;;11.64;89.60
39793;BME280;26080;42.264;24.536;2023-02-23T10:25:41;99412.38;;;11.63;88.01
39793;BME280;26080;42.264;24.536;2023-02-23T10:28:16;99413.03;;;11.68;87.26
39793;BME280;26080;42.264;24.536;2023-02-23T10:30:43;99395.34;;;11.71;86.24
39793;BME280;26080;42.264;24.536;2023-02-23T10:33:44;99402.72;;;11.63;86.16
39793;BME280;26080;42.264;24.536;2023-02-23T10:36:17;99405.75;;;11.55;86.13
39793;BME280;26080;42.264;24.536;2023-02-23T10:38:46;99397.72;;;11.58;87.08
39793;BME280;26080;42.264;24.536;2023-02-23T10:41:12;99391.97;;;11.52;86.42
39793;BME280;26080;42.264;24.536;2023-02-23T10:43:37;99395.28;;;11.55;87.20
39793;BME280;26080;42.264;24.536;2023-02-23T10:46:03;99376.91;;;11.55;88.18
39793;BME280;26080;42.264;24.536;2023-02-23T10:48:39;99389.94;;;11.74;86.10
39793;BME280;26080;42.264;24.536;2023-02-23T10:51:17;99385.28;;;11.81;86.01
39793;BME280;26080;42.264;24.536;2023-02-23T10:53:44;99375.53;;;11.83;87.77
39793;BME280;26080;42.264;24.536;2023-02-23T10:56:14;99380.16;;;11.95;87.41
39793;BME280;26080;42.264;24.536;2023-02-23T10:58:55;99372.50;;;12.08;84.47
39793;BME280;26080;42.264;24.536;2023-02-23T11:01:38;99372.63;;;12.22;84.66
39793;BME280;26080;42.264;24.536;2023-02-23T11:04:29;99370.69;;;12.26;82.80
39793;BME280;26080;42.264;24.536;2023-02-23T11:07:14;99361.19;;;12.23;81.96
39793;BME280;26080;42.264;24.536;2023-02-23T11:09:40;99361.88;;;12.27;82.53
39793;BME280;26080;42.264;24.536;2023-02-23T11:14:46;99315.25;;;12.14;83.29
39793;BME280;26080;42.264;24.536;2023-02-23T11:17:29;99346.41;;;12.54;82.80
39793;BME280;26080;42.264;24.536;2023-02-23T11:19:59;99355.41;;;12.65;82.29
39793;BME280;26080;42.264;24.536;2023-02-23T11:22:30;99355.41;;;12.65;81.24
39793;BME280;26080;42.264;24.536;2023-02-23T11:24:55;99328.69;;;12.57;81.48
39793;BME280;26080;42.264;24.536;2023-02-23T11:27:25;99348.38;;;12.66;81.97
39793;BME280;26080;42.264;24.536;2023-02-23T11:29:54;99346.50;;;12.84;80.08
39793;BME280;26080;42.264;24.536;2023-02-23T11:32:30;99346.06;;;12.91;79.37
39793;BME280;26080;42.264;24.536;2023-02-23T11:37:37;99340.91;;;12.90;79.40
39793;BME280;26080;42.264;24.536;2023-02-23T11:40:22;99329.72;;;13.02;78.72
39793;BME280;26080;42.264;24.536;2023-02-23T11:45:25;99328.16;;;12.98;78.71
39793;BME280;26080;42.264;24.536;2023-02-23T11:47:55;99326.38;;;12.98;78.69
39793;BME280;26080;42.264;24.536;2023-02-23T11:53:12;99328.03;;;13.15;77.73
39793;BME280;26080;42.264;24.536;2023-02-23T11:55:46;99330.19;;;13.09;78.18
39793;BME280;26080;42.264;24.536;2023-02-23T12:01:02;99331.13;;;13.23;75.28
39793;BME280;26080;42.264;24.536;2023-02-23T12:03:32;99333.56;;;13.26;76.85
39793;BME280;26080;42.264;24.536;2023-02-23T12:05:58;99327.97;;;13.32;76.85
39793;BME280;26080;42.264;24.536;2023-02-23T12:08:53;99331.25;;;13.36;76.87
39793;BME280;26080;42.264;24.536;2023-02-23T12:11:24;99329.66;;;13.33;76.35
39793;BME280;26080;42.264;24.536;2023-02-23T12:14:28;99331.69;;;13.44;76.19
39793;BME280;26080;42.264;24.536;2023-02-23T12:17:02;99330.28;;;13.53;75.51
39793;BME280;26080;42.264;24.536;2023-02-23T12:19:38;99305.53;;;13.41;78.05
39793;BME280;26080;42.264;24.536;2023-02-23T12:22:34;99327.19;;;13.60;77.66
39793;BME280;26080;42.264;24.536;2023-02-23T12:25:05;99326.47;;;13.73;76.29
39793;BME280;26080;42.264;24.536;2023-02-23T12:30:38;99336.72;;;13.77;76.09
39793;BME280;26080;42.264;24.536;2023-02-23T12:33:14;99329.56;;;13.79;75.97
39793;BME280;26080;42.264;24.536;2023-02-23T12:35:55;99332.41;;;13.76;76.90
39793;BME280;26080;42.264;24.536;2023-02-23T12:41:36;99329.47;;;13.81;77.73
39793;BME280;26080;42.264;24.536;2023-02-23T12:44:17;99338.97;;;13.83;77.63
39793;BME280;26080;42.264;24.536;2023-02-23T12:46:50;99321.88;;;13.76;80.17
39793;BME280;26080;42.264;24.536;2023-02-23T12:52:12;99337.13;;;14.00;79.18
39793;BME280;26080;42.264;24.536;2023-02-23T12:54:42;99340.31;;;13.90;79.86
39793;BME280;26080;42.264;24.536;2023-02-23T13:02:20;99334.47;;;13.71;80.75
39793;BME280;26080;42.264;24.536;2023-02-23T13:10:31;99351.94;;;13.72;82.53
39793;BME280;26080;42.264;24.536;2023-02-23T13:16:15;99347.22;;;13.63;81.98
39793;BME280;26080;42.264;24.536;2023-02-23T13:18:48;99344.69;;;13.61;80.87
39793;BME280;26080;42.264;24.536;2023-02-23T13:23:55;99343.47;;;13.67;82.36
39793;BME280;26080;42.264;24.536;2023-02-23T13:26:40;99347.59;;;13.57;83.73
39793;BME280;26080;42.264;24.536;2023-02-23T13:31:48;99346.25;;;13.50;85.04
39793;BME280;26080;42.264;24.536;2023-02-23T13:34:25;99356.09;;;13.46;84.91
39793;BME280;26080;42.264;24.536;2023-02-23T13:36:52;99347.09;;;13.50;84.71
39793;BME280;26080;42.264;24.536;2023-02-23T13:50:26;99365.13;;;13.26;90.50
39793;BME280;26080;42.264;24.536;2023-02-23T13:52:55;99360.91;;;13.24;90.29
39793;BME280;26080;42.264;24.536;2023-02-23T13:57:56;99372.28;;;12.93;93.32
39793;BME280;26080;42.264;24.536;2023-02-23T14:00:27;99375.84;;;12.92;93.98
39793;BME280;26080;42.264;24.536;2023-02-23T14:03:02;99370.06;;;12.85;94.02
39793;BME280;26080;42.264;24.536;2023-02-23T14:05:41;99378.13;;;12.66;94.15
39793;BME280;26080;42.264;24.536;2023-02-23T14:08:21;99376.81;;;12.58;95.99
39793;BME280;26080;42.264;24.536;2023-02-23T14:10:48;99372.00;;;12.50;97.37
39793;BME280;26080;42.264;24.536;2023-02-23T14:15:45;99389.19;;;12.40;99.58
39793;BME280;26080;42.264;24.536;2023-02-23T14:26:07;99397.91;;;12.07;100.00
39793;BME280;26080;42.264;24.536;2023-02-23T14:28:35;99400.44;;;11.92;100.00
39793;BME280;26080;42.264;24.536;2023-02-23T14:41:27;99400.50;;;11.73;100.00
39793;BME280;26080;42.264;24.536;2023-02-23T14:44:29;99407.63;;;11.71;100.00
39793;BME280;26080;42.264;24.536;2023-02-23T14:47:11;99403.91;;;11.57;100.00
39793;BME280;26080;42.264;24.536;2023-02-23T14:49:43;99379.53;;;11.38;100.00
39793;BME280;26080;42.264;24.536;2023-02-23T14:54:46;99414.91;;;11.30;100.00
39793;BME280;26080;42.264;24.536;2023-02-23T14:57:23;99407.97;;;11.10;100.00
39793;BME280;26080;42.264;24.536;2023-02-23T15:02:20;99412.41;;;10.90;100.00
39793;BME280;26080;42.264;24.536;2023-02-23T15:04:46;99415.25;;;10.86;100.00
39793;BME280;26080;42.264;24.536;2023-02-23T15:07:15;99423.28;;;10.81;100.00
39793;BME280;26080;42.264;24.536;2023-02-23T15:09:43;99429.81;;;10.73;100.00
39793;BME280;26080;42.264;24.536;2023-02-23T15:12:30;99428.38;;;10.65;100.00
39793;BME280;26080;42.264;24.536;2023-02-23T15:15:01;99431.38;;;10.58;100.00
39793;BME280;26080;42.264;24.536;2023-02-23T15:17:29;99437.78;;;10.51;100.00
39793;BME280;26080;42.264;24.536;2023-02-23T15:20:02;99427.22;;;10.33;100.00
39793;BME280;26080;42.264;24.536;2023-02-23T15:22:32;99430.41;;;10.20;100.00
39793;BME280;26080;42.264;24.536;2023-02-23T15:25:00;99438.22;;;10.21;100.00
39793;BME280;26080;42.264;24.536;2023-02-23T15:27:36;99441.19;;;10.12;100.00